Huvudsida
METAR-TAF:

METAR-TAF

Flygplatser :

Hans Christian Andersens flygplats

Odense, Danmark

latitud: 55-29N, longitud: 010-20E, höjd: 17 m

Aktuellt väderrapport

Denna rapport gjordes för 1 timme och 58 minuter sedan, klockan 13:50 UTC
Vind 14 kt från sydväst, varierande mellan syd och väst/sydväst
Temperatur 23°C
Fuktighet 61%
Tryck 1013 hPa
Sikt 10 km eller mer
Spridda moln på en höjd av 3800 ft

METAR: EKOD 161350Z 22014KT 180V250 9999 SCT038 23/15 Q1013

Tid: 17:48 (15:48 UTC)

Väderprognos

Denna rapport gjordes för 6 timmar och 37 minuter sedan, klockan 09:11 UTC
Prognos gäller från 16 kl. 09 UTC till 16 kl. 14 UTC
Vind 12 kt från syd
Sikt 10 km eller mer
Brutna moln på en höjd av 4000 ft
Temporärt
från 16 kl. 10 UTC till 16 kl. 14 UTC
Vind 15 kt från syd/sydväst i byarna ända upp till 26 kt

TAF: EKOD 160911Z 1609/1614 19012KT 9999 BKN040 TEMPO 1610/1614 21015G26KT

Aktuella väderrapporter och prognoser från 4000 flygplatser (METAR- och TAF-rapporter).

De tillgängliga stationerna syns som gula och röda prickar på kartan.

För musen över prickarna för att se namnen på stationerna.

Klicka sedan för att få väderrapporter och prognoser.

För att ändra kartan: Klicka på de gröna knapparna med ett svart kors på för att zooma in; den gröna knappen med ett streck på för att zooma ut; eller på de gröna pilarna för angränsande kartor.


METAR-TAF: